sensor_id;sensor_type;location;lat;lon;timestamp;pressure;altitude;pressure_sealevel;temperature;humidity
34482;BME280;20720;48.886;9.388;2023-03-16T00:00:53;98804.97;;;2.00;100.00
34482;BME280;20720;48.886;9.388;2023-03-16T00:03:18;98812.31;;;1.95;100.00
34482;BME280;20720;48.886;9.388;2023-03-16T00:05:45;98807.41;;;1.92;100.00
34482;BME280;20720;48.886;9.388;2023-03-16T00:08:10;98808.44;;;1.80;100.00
34482;BME280;20720;48.886;9.388;2023-03-16T00:10:35;98807.34;;;1.73;100.00
34482;BME280;20720;48.886;9.388;2023-03-16T00:13:00;98806.09;;;1.67;100.00
34482;BME280;20720;48.886;9.388;2023-03-16T00:15:26;98800.00;;;1.68;100.00
34482;BME280;20720;48.886;9.388;2023-03-16T00:17:51;98805.84;;;1.61;100.00
34482;BME280;20720;48.886;9.388;2023-03-16T00:20:17;98808.53;;;1.59;100.00
34482;BME280;20720;48.886;9.388;2023-03-16T00:22:43;98811.16;;;1.69;100.00
34482;BME280;20720;48.886;9.388;2023-03-16T00:25:09;98810.03;;;1.62;100.00
34482;BME280;20720;48.886;9.388;2023-03-16T00:27:35;98809.94;;;1.73;100.00
34482;BME280;20720;48.886;9.388;2023-03-16T00:30:00;98809.78;;;1.65;100.00
34482;BME280;20720;48.886;9.388;2023-03-16T00:32:28;98813.44;;;1.53;100.00
34482;BME280;20720;48.886;9.388;2023-03-16T00:34:54;98817.78;;;1.52;100.00
34482;BME280;20720;48.886;9.388;2023-03-16T00:37:20;98819.19;;;1.66;100.00
34482;BME280;20720;48.886;9.388;2023-03-16T00:39:47;98819.81;;;1.49;100.00
34482;BME280;20720;48.886;9.388;2023-03-16T00:42:13;98823.09;;;1.51;100.00
34482;BME280;20720;48.886;9.388;2023-03-16T00:44:39;98813.00;;;1.57;100.00
34482;BME280;20720;48.886;9.388;2023-03-16T00:47:06;98813.84;;;1.58;100.00
34482;BME280;20720;48.886;9.388;2023-03-16T00:49:32;98800.72;;;1.50;100.00
34482;BME280;20720;48.886;9.388;2023-03-16T00:52:03;98801.00;;;1.47;100.00
34482;BME280;20720;48.886;9.388;2023-03-16T00:54:29;98794.56;;;1.41;100.00
34482;BME280;20720;48.886;9.388;2023-03-16T00:56:56;98797.16;;;1.41;100.00
34482;BME280;20720;48.886;9.388;2023-03-16T00:59:22;98804.22;;;1.39;100.00
34482;BME280;20720;48.886;9.388;2023-03-16T01:01:47;98801.78;;;1.38;100.00
34482;BME280;20720;48.886;9.388;2023-03-16T01:04:12;98796.84;;;1.35;100.00
34482;BME280;20720;48.886;9.388;2023-03-16T01:06:37;98797.41;;;1.29;100.00
34482;BME280;20720;48.886;9.388;2023-03-16T01:09:03;98797.41;;;1.29;100.00
34482;BME280;20720;48.886;9.388;2023-03-16T01:11:29;98802.56;;;1.29;100.00
34482;BME280;20720;48.886;9.388;2023-03-16T01:13:57;98799.59;;;1.13;100.00
34482;BME280;20720;48.886;9.388;2023-03-16T01:16:23;98797.78;;;1.24;100.00
34482;BME280;20720;48.886;9.388;2023-03-16T01:18:48;98798.41;;;1.17;100.00
34482;BME280;20720;48.886;9.388;2023-03-16T01:21:14;98799.75;;;1.11;100.00
34482;BME280;20720;48.886;9.388;2023-03-16T01:23:39;98797.34;;;0.98;100.00
34482;BME280;20720;48.886;9.388;2023-03-16T01:26:05;98801.41;;;1.22;100.00
34482;BME280;20720;48.886;9.388;2023-03-16T01:28:32;98797.94;;;1.32;100.00
34482;BME280;20720;48.886;9.388;2023-03-16T01:31:00;98797.06;;;1.22;100.00
34482;BME280;20720;48.886;9.388;2023-03-16T01:33:26;98791.06;;;1.22;100.00
34482;BME280;20720;48.886;9.388;2023-03-16T01:35:56;98789.41;;;1.11;100.00
34482;BME280;20720;48.886;9.388;2023-03-16T01:38:22;98792.34;;;1.07;100.00
34482;BME280;20720;48.886;9.388;2023-03-16T01:40:48;98792.22;;;1.29;100.00
34482;BME280;20720;48.886;9.388;2023-03-16T01:43:15;98784.97;;;1.23;100.00
34482;BME280;20720;48.886;9.388;2023-03-16T01:48:19;98784.78;;;1.15;100.00
34482;BME280;20720;48.886;9.388;2023-03-16T01:50:45;98779.88;;;1.12;100.00
34482;BME280;20720;48.886;9.388;2023-03-16T01:53:11;98780.13;;;1.09;100.00
34482;BME280;20720;48.886;9.388;2023-03-16T01:55:36;98779.00;;;1.02;100.00
34482;BME280;20720;48.886;9.388;2023-03-16T01:58:01;98777.63;;;0.98;100.00
34482;BME280;20720;48.886;9.388;2023-03-16T02:00:26;98775.78;;;1.09;100.00
34482;BME280;20720;48.886;9.388;2023-03-16T02:02:57;98783.06;;;1.25;100.00
34482;BME280;20720;48.886;9.388;2023-03-16T02:07:55;98785.66;;;1.25;100.00
34482;BME280;20720;48.886;9.388;2023-03-16T02:10:23;98786.25;;;1.38;100.00
34482;BME280;20720;48.886;9.388;2023-03-16T02:12:48;98782.19;;;1.45;100.00
34482;BME280;20720;48.886;9.388;2023-03-16T02:15:14;98780.63;;;1.33;100.00
34482;BME280;20720;48.886;9.388;2023-03-16T02:17:40;98778.00;;;1.23;100.00
34482;BME280;20720;48.886;9.388;2023-03-16T02:22:38;98777.16;;;1.13;100.00
34482;BME280;20720;48.886;9.388;2023-03-16T02:25:06;98764.25;;;1.53;100.00
34482;BME280;20720;48.886;9.388;2023-03-16T02:30:12;98762.41;;;1.74;100.00
34482;BME280;20720;48.886;9.388;2023-03-16T02:32:37;98762.88;;;1.49;100.00
34482;BME280;20720;48.886;9.388;2023-03-16T02:35:09;98758.63;;;1.18;100.00
34482;BME280;20720;48.886;9.388;2023-03-16T02:37:34;98767.09;;;1.59;100.00
34482;BME280;20720;48.886;9.388;2023-03-16T02:40:00;98771.19;;;1.52;100.00
34482;BME280;20720;48.886;9.388;2023-03-16T02:42:26;98770.50;;;1.20;100.00
34482;BME280;20720;48.886;9.388;2023-03-16T02:44:53;98777.06;;;1.64;100.00
34482;BME280;20720;48.886;9.388;2023-03-16T02:49:55;98779.00;;;1.71;100.00
34482;BME280;20720;48.886;9.388;2023-03-16T02:52:20;98778.09;;;1.91;100.00
34482;BME280;20720;48.886;9.388;2023-03-16T02:54:45;98786.03;;;2.09;100.00
34482;BME280;20720;48.886;9.388;2023-03-16T02:57:10;98782.38;;;2.21;100.00
34482;BME280;20720;48.886;9.388;2023-03-16T02:59:35;98786.41;;;2.05;100.00
34482;BME280;20720;48.886;9.388;2023-03-16T03:02:00;98781.25;;;2.14;100.00
34482;BME280;20720;48.886;9.388;2023-03-16T03:04:26;98780.72;;;2.11;100.00
34482;BME280;20720;48.886;9.388;2023-03-16T03:06:51;98783.16;;;2.12;100.00
34482;BME280;20720;48.886;9.388;2023-03-16T03:09:16;98780.44;;;2.04;100.00
34482;BME280;20720;48.886;9.388;2023-03-16T03:11:42;98780.72;;;2.11;100.00
34482;BME280;20720;48.886;9.388;2023-03-16T03:14:07;98773.09;;;2.28;100.00
34482;BME280;20720;48.886;9.388;2023-03-16T03:16:33;98771.31;;;2.19;100.00
34482;BME280;20720;48.886;9.388;2023-03-16T03:18:58;98775.53;;;2.20;100.00
34482;BME280;20720;48.886;9.388;2023-03-16T03:21:23;98778.00;;;2.31;100.00
34482;BME280;20720;48.886;9.388;2023-03-16T03:23:48;98776.06;;;2.14;100.00
34482;BME280;20720;48.886;9.388;2023-03-16T03:26:14;98780.19;;;2.26;100.00
34482;BME280;20720;48.886;9.388;2023-03-16T03:28:40;98773.38;;;2.25;100.00
34482;BME280;20720;48.886;9.388;2023-03-16T03:31:05;98769.00;;;2.35;100.00
34482;BME280;20720;48.886;9.388;2023-03-16T03:33:30;98770.09;;;2.14;100.00
34482;BME280;20720;48.886;9.388;2023-03-16T03:35:58;98763.00;;;2.25;100.00
34482;BME280;20720;48.886;9.388;2023-03-16T03:38:24;98757.53;;;2.38;100.00
34482;BME280;20720;48.886;9.388;2023-03-16T03:40:53;98752.91;;;2.22;100.00
34482;BME280;20720;48.886;9.388;2023-03-16T03:43:18;98747.72;;;2.41;100.00
34482;BME280;20720;48.886;9.388;2023-03-16T03:45:45;98749.91;;;2.36;100.00
34482;BME280;20720;48.886;9.388;2023-03-16T03:48:10;98753.19;;;2.10;100.00
34482;BME280;20720;48.886;9.388;2023-03-16T03:50:35;98748.53;;;2.42;100.00
34482;BME280;20720;48.886;9.388;2023-03-16T03:53:02;98755.34;;;2.24;100.00
34482;BME280;20720;48.886;9.388;2023-03-16T03:55:27;98754.94;;;2.28;100.00
34482;BME280;20720;48.886;9.388;2023-03-16T03:57:52;98750.84;;;2.35;100.00
34482;BME280;20720;48.886;9.388;2023-03-16T04:00:17;98744.97;;;2.33;100.00
34482;BME280;20720;48.886;9.388;2023-03-16T04:02:45;98736.66;;;2.39;100.00
34482;BME280;20720;48.886;9.388;2023-03-16T04:05:11;98731.47;;;2.39;100.00
34482;BME280;20720;48.886;9.388;2023-03-16T04:07:36;98730.53;;;2.40;100.00
34482;BME280;20720;48.886;9.388;2023-03-16T04:10:02;98725.59;;;2.37;100.00
34482;BME280;20720;48.886;9.388;2023-03-16T04:12:28;98722.34;;;2.35;100.00
34482;BME280;20720;48.886;9.388;2023-03-16T04:14:53;98730.25;;;2.43;100.00
34482;BME280;20720;48.886;9.388;2023-03-16T04:17:18;98744.72;;;2.17;100.00
34482;BME280;20720;48.886;9.388;2023-03-16T04:19:43;98750.16;;;2.52;100.00
34482;BME280;20720;48.886;9.388;2023-03-16T04:22:08;98739.66;;;2.44;100.00
34482;BME280;20720;48.886;9.388;2023-03-16T04:24:34;98736.78;;;2.57;100.00
34482;BME280;20720;48.886;9.388;2023-03-16T04:27:00;98734.63;;;2.24;100.00
34482;BME280;20720;48.886;9.388;2023-03-16T04:29:26;98719.59;;;2.27;100.00
34482;BME280;20720;48.886;9.388;2023-03-16T04:31:52;98712.78;;;2.36;100.00
34482;BME280;20720;48.886;9.388;2023-03-16T04:34:18;98711.03;;;2.36;100.00
34482;BME280;20720;48.886;9.388;2023-03-16T04:36:43;98719.88;;;2.53;100.00
34482;BME280;20720;48.886;9.388;2023-03-16T04:39:08;98710.88;;;2.28;100.00
34482;BME280;20720;48.886;9.388;2023-03-16T04:41:34;98712.50;;;2.39;100.00
34482;BME280;20720;48.886;9.388;2023-03-16T04:43:59;98709.19;;;2.56;100.00
34482;BME280;20720;48.886;9.388;2023-03-16T04:46:25;98701.69;;;2.62;100.00
34482;BME280;20720;48.886;9.388;2023-03-16T04:48:50;98703.16;;;2.74;100.00
34482;BME280;20720;48.886;9.388;2023-03-16T04:51:15;98700.75;;;2.44;100.00
34482;BME280;20720;48.886;9.388;2023-03-16T04:53:40;98699.38;;;2.59;100.00
34482;BME280;20720;48.886;9.388;2023-03-16T04:56:06;98698.94;;;2.73;100.00
34482;BME280;20720;48.886;9.388;2023-03-16T04:58:32;98696.03;;;2.76;100.00
34482;BME280;20720;48.886;9.388;2023-03-16T05:00:57;98700.28;;;2.77;100.00
34482;BME280;20720;48.886;9.388;2023-03-16T05:03:22;98697.75;;;2.58;100.00
34482;BME280;20720;48.886;9.388;2023-03-16T05:05:48;98697.19;;;2.64;100.00
34482;BME280;20720;48.886;9.388;2023-03-16T05:08:13;98696.69;;;2.51;100.00
34482;BME280;20720;48.886;9.388;2023-03-16T05:10:39;98701.34;;;2.38;100.00
34482;BME280;20720;48.886;9.388;2023-03-16T05:13:04;98701.56;;;2.64;100.00
34482;BME280;20720;48.886;9.388;2023-03-16T05:15:30;98696.91;;;2.58;100.00
34482;BME280;20720;48.886;9.388;2023-03-16T05:17:55;98700.75;;;2.54;100.00
34482;BME280;20720;48.886;9.388;2023-03-16T05:20:20;98687.16;;;2.88;100.00
34482;BME280;20720;48.886;9.388;2023-03-16T05:22:46;98688.28;;;2.67;100.00
34482;BME280;20720;48.886;9.388;2023-03-16T05:25:12;98690.88;;;2.76;100.00
34482;BME280;20720;48.886;9.388;2023-03-16T05:27:42;98686.53;;;2.67;100.00
34482;BME280;20720;48.886;9.388;2023-03-16T05:30:08;98687.19;;;2.79;100.00
34482;BME280;20720;48.886;9.388;2023-03-16T05:32:33;98683.66;;;2.70;100.00
34482;BME280;20720;48.886;9.388;2023-03-16T05:34:59;98684.66;;;2.50;100.00
34482;BME280;20720;48.886;9.388;2023-03-16T05:37:24;98680.31;;;2.41;100.00
34482;BME280;20720;48.886;9.388;2023-03-16T05:39:49;98679.78;;;2.28;100.00
34482;BME280;20720;48.886;9.388;2023-03-16T05:42:14;98681.84;;;2.80;100.00
34482;BME280;20720;48.886;9.388;2023-03-16T05:44:39;98683.94;;;2.67;100.00
34482;BME280;20720;48.886;9.388;2023-03-16T05:47:05;98678.34;;;2.72;100.00
34482;BME280;20720;48.886;9.388;2023-03-16T05:49:30;98679.22;;;2.53;100.00
34482;BME280;20720;48.886;9.388;2023-03-16T05:51:55;98676.56;;;2.72;100.00
34482;BME280;20720;48.886;9.388;2023-03-16T05:54:21;98676.50;;;2.82;100.00
34482;BME280;20720;48.886;9.388;2023-03-16T05:56:47;98668.69;;;2.92;100.00
34482;BME280;20720;48.886;9.388;2023-03-16T05:59:12;98670.56;;;2.99;100.00
34482;BME280;20720;48.886;9.388;2023-03-16T06:01:37;98667.47;;;3.23;100.00
34482;BME280;20720;48.886;9.388;2023-03-16T06:04:03;98665.41;;;3.26;100.00
34482;BME280;20720;48.886;9.388;2023-03-16T06:06:29;98661.59;;;3.21;100.00
34482;BME280;20720;48.886;9.388;2023-03-16T06:08:54;98663.41;;;3.38;100.00
34482;BME280;20720;48.886;9.388;2023-03-16T06:11:19;98655.28;;;3.50;100.00
34482;BME280;20720;48.886;9.388;2023-03-16T06:13:45;98664.72;;;3.51;100.00
34482;BME280;20720;48.886;9.388;2023-03-16T06:16:10;98651.31;;;3.29;100.00
34482;BME280;20720;48.886;9.388;2023-03-16T06:18:37;98659.69;;;3.23;100.00
34482;BME280;20720;48.886;9.388;2023-03-16T06:21:03;98656.50;;;3.29;100.00
34482;BME280;20720;48.886;9.388;2023-03-16T06:23:28;98651.03;;;3.32;100.00
34482;BME280;20720;48.886;9.388;2023-03-16T06:25:54;98653.34;;;3.52;100.00
34482;BME280;20720;48.886;9.388;2023-03-16T06:28:19;98649.56;;;3.47;100.00
34482;BME280;20720;48.886;9.388;2023-03-16T06:30:44;98653.19;;;3.36;100.00
34482;BME280;20720;48.886;9.388;2023-03-16T06:33:10;98654.59;;;3.31;100.00
34482;BME280;20720;48.886;9.388;2023-03-16T06:35:35;98663.16;;;3.58;100.00
34482;BME280;20720;48.886;9.388;2023-03-16T06:38:00;98659.44;;;3.43;100.00
34482;BME280;20720;48.886;9.388;2023-03-16T06:40:25;98651.72;;;3.51;100.00
34482;BME280;20720;48.886;9.388;2023-03-16T06:42:50;98653.72;;;3.75;100.00
34482;BME280;20720;48.886;9.388;2023-03-16T06:45:16;98651.75;;;3.69;100.00
34482;BME280;20720;48.886;9.388;2023-03-16T06:47:42;98654.13;;;3.80;100.00
34482;BME280;20720;48.886;9.388;2023-03-16T06:50:07;98652.13;;;3.74;100.00
34482;BME280;20720;48.886;9.388;2023-03-16T06:52:33;98658.06;;;3.84;100.00
34482;BME280;20720;48.886;9.388;2023-03-16T06:54:58;98653.44;;;4.13;100.00
34482;BME280;20720;48.886;9.388;2023-03-16T06:57:23;98646.53;;;4.04;100.00
34482;BME280;20720;48.886;9.388;2023-03-16T06:59:49;98649.44;;;4.01;100.00
34482;BME280;20720;48.886;9.388;2023-03-16T07:02:15;98650.31;;;4.10;100.00
34482;BME280;20720;48.886;9.388;2023-03-16T07:04:41;98650.53;;;4.16;100.00
34482;BME280;20720;48.886;9.388;2023-03-16T07:07:06;98648.66;;;4.26;100.00
34482;BME280;20720;48.886;9.388;2023-03-16T07:09:32;98647.84;;;4.26;100.00
34482;BME280;20720;48.886;9.388;2023-03-16T07:11:57;98646.88;;;4.52;100.00
34482;BME280;20720;48.886;9.388;2023-03-16T07:14:23;98649.28;;;4.71;100.00
34482;BME280;20720;48.886;9.388;2023-03-16T07:16:50;98652.41;;;5.17;100.00
34482;BME280;20720;48.886;9.388;2023-03-16T07:19:16;98656.34;;;5.13;100.00
34482;BME280;20720;48.886;9.388;2023-03-16T07:21:41;98660.22;;;5.17;100.00
34482;BME280;20720;48.886;9.388;2023-03-16T07:24:07;98665.28;;;5.68;100.00
34482;BME280;20720;48.886;9.388;2023-03-16T07:26:33;98664.25;;;5.45;100.00
34482;BME280;20720;48.886;9.388;2023-03-16T07:28:58;98665.00;;;5.79;100.00
34482;BME280;20720;48.886;9.388;2023-03-16T07:31:23;98671.16;;;5.70;100.00
34482;BME280;20720;48.886;9.388;2023-03-16T07:33:49;98683.72;;;5.83;100.00
34482;BME280;20720;48.886;9.388;2023-03-16T07:36:14;98673.84;;;6.02;100.00
34482;BME280;20720;48.886;9.388;2023-03-16T07:38:39;98681.19;;;6.07;100.00
34482;BME280;20720;48.886;9.388;2023-03-16T07:41:05;98687.06;;;6.33;100.00
34482;BME280;20720;48.886;9.388;2023-03-16T07:43:31;98677.38;;;6.82;100.00
34482;BME280;20720;48.886;9.388;2023-03-16T07:45:56;98687.13;;;7.04;100.00
34482;BME280;20720;48.886;9.388;2023-03-16T07:48:21;98691.41;;;7.43;100.00
34482;BME280;20720;48.886;9.388;2023-03-16T07:50:47;98695.88;;;7.88;100.00
34482;BME280;20720;48.886;9.388;2023-03-16T07:53:12;98695.84;;;7.96;100.00
34482;BME280;20720;48.886;9.388;2023-03-16T07:55:39;98690.44;;;7.67;100.00
34482;BME280;20720;48.886;9.388;2023-03-16T07:58:05;98701.03;;;7.43;100.00
34482;BME280;20720;48.886;9.388;2023-03-16T08:00:31;98694.00;;;7.43;100.00
34482;BME280;20720;48.886;9.388;2023-03-16T08:02:56;98686.06;;;7.90;100.00
34482;BME280;20720;48.886;9.388;2023-03-16T08:05:22;98690.47;;;8.57;100.00
34482;BME280;20720;48.886;9.388;2023-03-16T08:07:47;98696.03;;;8.63;100.00
34482;BME280;20720;48.886;9.388;2023-03-16T08:10:12;98701.97;;;8.57;100.00
34482;BME280;20720;48.886;9.388;2023-03-16T08:12:38;98702.66;;;8.50;100.00
34482;BME280;20720;48.886;9.388;2023-03-16T08:15:03;98697.94;;;8.69;100.00
34482;BME280;20720;48.886;9.388;2023-03-16T08:17:29;98694.94;;;8.34;100.00
34482;BME280;20720;48.886;9.388;2023-03-16T08:19:55;98705.50;;;8.64;100.00
34482;BME280;20720;48.886;9.388;2023-03-16T08:22:20;98699.78;;;9.26;100.00
34482;BME280;20720;48.886;9.388;2023-03-16T08:24:45;98703.84;;;9.00;97.79
34482;BME280;20720;48.886;9.388;2023-03-16T08:27:10;98707.19;;;9.08;97.57
34482;BME280;20720;48.886;9.388;2023-03-16T08:29:35;98697.50;;;9.88;94.45
34482;BME280;20720;48.886;9.388;2023-03-16T08:32:01;98707.69;;;10.33;89.16
34482;BME280;20720;48.886;9.388;2023-03-16T08:34:27;98717.47;;;9.68;91.08
34482;BME280;20720;48.886;9.388;2023-03-16T08:36:52;98715.63;;;9.83;91.44
34482;BME280;20720;48.886;9.388;2023-03-16T08:39:18;98701.66;;;9.47;93.83
34482;BME280;20720;48.886;9.388;2023-03-16T08:41:43;98695.78;;;9.95;90.22
34482;BME280;20720;48.886;9.388;2023-03-16T08:44:09;98694.97;;;10.58;86.56
34482;BME280;20720;48.886;9.388;2023-03-16T08:46:35;98694.41;;;11.18;83.46
34482;BME280;20720;48.886;9.388;2023-03-16T08:49:00;98693.09;;;11.01;83.64
34482;BME280;20720;48.886;9.388;2023-03-16T08:51:26;98691.56;;;11.19;84.15
34482;BME280;20720;48.886;9.388;2023-03-16T08:53:53;98691.63;;;10.92;83.04
34482;BME280;20720;48.886;9.388;2023-03-16T08:56:18;98687.03;;;11.41;80.02
34482;BME280;20720;48.886;9.388;2023-03-16T08:58:44;98681.69;;;12.49;78.93
34482;BME280;20720;48.886;9.388;2023-03-16T09:01:10;98677.00;;;12.77;75.75
34482;BME280;20720;48.886;9.388;2023-03-16T09:03:36;98676.34;;;12.09;78.77
34482;BME280;20720;48.886;9.388;2023-03-16T09:06:02;98671.53;;;12.59;76.29
34482;BME280;20720;48.886;9.388;2023-03-16T09:08:28;98670.25;;;10.46;88.49
34482;BME280;20720;48.886;9.388;2023-03-16T09:11:00;98673.16;;;12.53;79.21
34482;BME280;20720;48.886;9.388;2023-03-16T09:13:27;98685.13;;;12.43;75.77
34482;BME280;20720;48.886;9.388;2023-03-16T09:15:52;98672.31;;;12.20;77.60
34482;BME280;20720;48.886;9.388;2023-03-16T09:18:18;98680.97;;;11.94;77.67
34482;BME280;20720;48.886;9.388;2023-03-16T09:20:43;98676.19;;;12.30;76.80
34482;BME280;20720;48.886;9.388;2023-03-16T09:23:11;98673.06;;;11.88;80.05
34482;BME280;20720;48.886;9.388;2023-03-16T09:25:37;98667.47;;;12.76;75.50
34482;BME280;20720;48.886;9.388;2023-03-16T09:28:03;98661.31;;;13.34;71.04
34482;BME280;20720;48.886;9.388;2023-03-16T09:30:28;98667.84;;;12.79;73.11
34482;BME280;20720;48.886;9.388;2023-03-16T09:32:53;98671.09;;;11.56;76.56
34482;BME280;20720;48.886;9.388;2023-03-16T09:35:19;98671.94;;;12.49;75.90
34482;BME280;20720;48.886;9.388;2023-03-16T09:37:44;98661.84;;;13.93;70.13
34482;BME280;20720;48.886;9.388;2023-03-16T09:40:20;98663.78;;;13.23;69.06
34482;BME280;20720;48.886;9.388;2023-03-16T09:43:09;98649.28;;;13.38;67.46
34482;BME280;20720;48.886;9.388;2023-03-16T09:45:34;98643.91;;;13.07;69.01
34482;BME280;20720;48.886;9.388;2023-03-16T09:48:03;98640.72;;;12.53;70.51
34482;BME280;20720;48.886;9.388;2023-03-16T09:50:33;98655.63;;;11.80;74.08
34482;BME280;20720;48.886;9.388;2023-03-16T09:57:50;98642.84;;;13.34;68.80
34482;BME280;20720;48.886;9.388;2023-03-16T10:00:19;98632.28;;;13.34;66.83
34482;BME280;20720;48.886;9.388;2023-03-16T10:05:29;98627.94;;;13.46;65.49
34482;BME280;20720;48.886;9.388;2023-03-16T10:08:06;98636.50;;;13.42;66.57
34482;BME280;20720;48.886;9.388;2023-03-16T10:10:45;98636.00;;;14.27;62.71
34482;BME280;20720;48.886;9.388;2023-03-16T10:13:21;98635.84;;;14.53;62.59
34482;BME280;20720;48.886;9.388;2023-03-16T10:15:51;98629.72;;;13.96;62.49
34482;BME280;20720;48.886;9.388;2023-03-16T10:18:19;98630.88;;;14.63;60.79
34482;BME280;20720;48.886;9.388;2023-03-16T10:20:48;98626.97;;;14.41;62.34
34482;BME280;20720;48.886;9.388;2023-03-16T10:23:16;98630.72;;;13.64;63.45
34482;BME280;20720;48.886;9.388;2023-03-16T10:25:54;98641.00;;;14.66;61.56
34482;BME280;20720;48.886;9.388;2023-03-16T10:28:23;98637.19;;;14.37;60.16
34482;BME280;20720;48.886;9.388;2023-03-16T10:30:49;98634.59;;;14.24;60.36
34482;BME280;20720;48.886;9.388;2023-03-16T10:33:24;98633.44;;;13.82;61.15
34482;BME280;20720;48.886;9.388;2023-03-16T10:38:41;98622.00;;;13.06;63.41
34482;BME280;20720;48.886;9.388;2023-03-16T10:43:41;98609.25;;;14.16;60.36
34482;BME280;20720;48.886;9.388;2023-03-16T10:46:08;98613.06;;;14.27;60.83
34482;BME280;20720;48.886;9.388;2023-03-16T10:48:33;98604.44;;;14.81;58.28
34482;BME280;20720;48.886;9.388;2023-03-16T10:50:59;98601.00;;;14.38;58.65
34482;BME280;20720;48.886;9.388;2023-03-16T10:53:29;98603.41;;;14.82;58.47
34482;BME280;20720;48.886;9.388;2023-03-16T10:55:59;98605.41;;;15.23;56.82
34482;BME280;20720;48.886;9.388;2023-03-16T10:58:28;98605.72;;;14.96;56.58
34482;BME280;20720;48.886;9.388;2023-03-16T11:00:54;98606.91;;;15.96;55.47
34482;BME280;20720;48.886;9.388;2023-03-16T11:03:20;98611.06;;;15.62;55.83
34482;BME280;20720;48.886;9.388;2023-03-16T11:05:55;98600.34;;;15.69;55.38
34482;BME280;20720;48.886;9.388;2023-03-16T11:08:22;98600.84;;;16.19;54.13
34482;BME280;20720;48.886;9.388;2023-03-16T11:10:56;98595.19;;;16.15;52.16
34482;BME280;20720;48.886;9.388;2023-03-16T11:13:23;98591.00;;;16.72;50.67
34482;BME280;20720;48.886;9.388;2023-03-16T11:16:05;98597.19;;;16.43;51.52
34482;BME280;20720;48.886;9.388;2023-03-16T11:18:38;98594.47;;;16.84;51.06
34482;BME280;20720;48.886;9.388;2023-03-16T11:21:11;98593.03;;;17.67;49.01
34482;BME280;20720;48.886;9.388;2023-03-16T11:23:39;98602.00;;;16.23;51.88
34482;BME280;20720;48.886;9.388;2023-03-16T11:26:10;98588.94;;;16.51;53.20
34482;BME280;20720;48.886;9.388;2023-03-16T11:28:41;98583.91;;;16.08;50.04
34482;BME280;20720;48.886;9.388;2023-03-16T11:33:39;98560.84;;;17.52;48.12
34482;BME280;20720;48.886;9.388;2023-03-16T11:36:20;98570.09;;;16.87;50.76
34482;BME280;20720;48.886;9.388;2023-03-16T11:41:20;98571.16;;;15.87;50.45
34482;BME280;20720;48.886;9.388;2023-03-16T11:43:56;98564.41;;;16.26;49.58
34482;BME280;20720;48.886;9.388;2023-03-16T11:46:29;98563.78;;;17.28;48.00
34482;BME280;20720;48.886;9.388;2023-03-16T11:53:48;98569.00;;;18.07;46.66
34482;BME280;20720;48.886;9.388;2023-03-16T12:01:15;98553.50;;;17.31;47.89
34482;BME280;20720;48.886;9.388;2023-03-16T12:03:54;98543.31;;;16.08;48.41
34482;BME280;20720;48.886;9.388;2023-03-16T12:09:14;98545.78;;;18.03;46.31
34482;BME280;20720;48.886;9.388;2023-03-16T12:14:46;98535.38;;;17.56;46.54
34482;BME280;20720;48.886;9.388;2023-03-16T12:17:18;98524.41;;;15.33;47.95
34482;BME280;20720;48.886;9.388;2023-03-16T12:24:46;98519.34;;;16.26;49.14
34482;BME280;20720;48.886;9.388;2023-03-16T12:27:16;98524.03;;;18.22;45.31
34482;BME280;20720;48.886;9.388;2023-03-16T12:29:50;98516.03;;;18.39;44.98
34482;BME280;20720;48.886;9.388;2023-03-16T12:34:47;98505.22;;;17.62;45.48
34482;BME280;20720;48.886;9.388;2023-03-16T12:37:26;98500.13;;;18.82;43.22
34482;BME280;20720;48.886;9.388;2023-03-16T12:45:16;98507.41;;;18.87;42.97
34482;BME280;20720;48.886;9.388;2023-03-16T12:50:26;98495.25;;;17.13;45.62
34482;BME280;20720;48.886;9.388;2023-03-16T12:52:52;98479.16;;;18.64;43.38
34482;BME280;20720;48.886;9.388;2023-03-16T12:55:18;98479.31;;;17.69;41.79
34482;BME280;20720;48.886;9.388;2023-03-16T12:57:45;98480.66;;;17.88;42.74
34482;BME280;20720;48.886;9.388;2023-03-16T13:00:11;98492.47;;;18.47;42.90
34482;BME280;20720;48.886;9.388;2023-03-16T13:02:40;98484.97;;;19.52;40.29
34482;BME280;20720;48.886;9.388;2023-03-16T13:05:08;98482.94;;;18.90;41.13
34482;BME280;20720;48.886;9.388;2023-03-16T13:07:33;98489.13;;;20.38;38.80
34482;BME280;20720;48.886;9.388;2023-03-16T13:10:01;98491.13;;;19.31;39.54
34482;BME280;20720;48.886;9.388;2023-03-16T13:12:31;98477.16;;;18.38;40.21
34482;BME280;20720;48.886;9.388;2023-03-16T13:15:00;98472.41;;;18.78;40.91
34482;BME280;20720;48.886;9.388;2023-03-16T13:17:27;98467.56;;;18.37;42.07
34482;BME280;20720;48.886;9.388;2023-03-16T13:22:28;98468.06;;;20.00;38.46
34482;BME280;20720;48.886;9.388;2023-03-16T13:24:55;98470.09;;;21.79;36.55
34482;BME280;20720;48.886;9.388;2023-03-16T13:27:27;98461.97;;;21.03;36.49
34482;BME280;20720;48.886;9.388;2023-03-16T13:29:54;98457.97;;;20.12;37.17
34482;BME280;20720;48.886;9.388;2023-03-16T13:32:20;98457.00;;;19.87;37.81
34482;BME280;20720;48.886;9.388;2023-03-16T13:34:47;98456.28;;;19.64;38.01
34482;BME280;20720;48.886;9.388;2023-03-16T13:37:14;98466.47;;;19.73;36.87
34482;BME280;20720;48.886;9.388;2023-03-16T13:39:40;98456.25;;;21.82;35.10
34482;BME280;20720;48.886;9.388;2023-03-16T13:42:16;98458.81;;;20.54;37.18
34482;BME280;20720;48.886;9.388;2023-03-16T13:44:42;98456.69;;;21.23;36.90
34482;BME280;20720;48.886;9.388;2023-03-16T13:47:11;98460.31;;;20.40;37.66
34482;BME280;20720;48.886;9.388;2023-03-16T13:49:44;98449.63;;;19.14;39.71
34482;BME280;20720;48.886;9.388;2023-03-16T13:52:16;98447.09;;;19.50;38.49
34482;BME280;20720;48.886;9.388;2023-03-16T13:54:44;98444.81;;;19.64;37.61
34482;BME280;20720;48.886;9.388;2023-03-16T13:57:10;98443.31;;;19.78;37.89
34482;BME280;20720;48.886;9.388;2023-03-16T13:59:36;98444.47;;;17.10;41.37
34482;BME280;20720;48.886;9.388;2023-03-16T14:02:01;98440.72;;;17.50;40.05